createdAt,value
2023-02-27T00:01:00.444Z,102438.22
2023-02-27T00:03:27.849Z,102441.47
2023-02-27T00:05:56.266Z,102441.34
2023-02-27T00:08:23.319Z,102442.22
2023-02-27T00:10:50.612Z,102449.91
2023-02-27T00:13:17.853Z,102453.13
2023-02-27T00:15:49.527Z,102452.09
2023-02-27T00:18:16.683Z,102455.25
2023-02-27T00:20:43.519Z,102455.38
2023-02-27T00:23:13.010Z,102451.88
2023-02-27T00:25:39.922Z,102451.88
2023-02-27T00:28:07.052Z,102450.81
2023-02-27T00:30:34.429Z,102450.78
2023-02-27T00:33:01.208Z,102459.94
2023-02-27T00:35:28.556Z,102459.94
2023-02-27T00:37:55.514Z,102455.59
2023-02-27T00:40:25.370Z,102456.25
2023-02-27T00:42:53.144Z,102465.66
2023-02-27T00:45:20.617Z,102456.94
2023-02-27T00:47:48.013Z,102451.00
2023-02-27T00:50:15.784Z,102457.72
2023-02-27T00:52:42.701Z,102456.13
2023-02-27T00:55:10.736Z,102455.81
2023-02-27T00:57:38.799Z,102451.50
2023-02-27T01:00:09.154Z,102451.25
2023-02-27T01:02:36.442Z,102457.00
2023-02-27T01:05:03.632Z,102453.00
2023-02-27T01:07:30.886Z,102448.78
2023-02-27T01:09:58.545Z,102460.59
2023-02-27T01:12:25.340Z,102455.53
2023-02-27T01:14:52.154Z,102450.59
2023-02-27T01:17:18.876Z,102457.00
2023-02-27T01:19:50.403Z,102450.31
2023-02-27T01:22:17.717Z,102451.69
2023-02-27T01:24:44.522Z,102451.72
2023-02-27T01:27:13.379Z,102451.03
2023-02-27T01:29:40.218Z,102449.25
2023-02-27T01:32:07.051Z,102446.47
2023-02-27T01:34:34.440Z,102446.34
2023-02-27T01:37:07.458Z,102435.13
2023-02-27T01:39:34.754Z,102441.88
2023-02-27T01:42:03.030Z,102436.88
2023-02-27T01:44:34.077Z,102433.44
2023-02-27T01:47:02.756Z,102441.84
2023-02-27T01:49:33.562Z,102440.78
2023-02-27T01:52:08.254Z,102436.91
2023-02-27T01:54:41.760Z,102441.25
2023-02-27T01:57:09.723Z,102447.00
2023-02-27T01:59:40.277Z,102441.81
2023-02-27T02:02:17.209Z,102442.53
2023-02-27T02:04:44.303Z,102447.63
2023-02-27T02:07:18.152Z,102440.88
2023-02-27T02:09:51.802Z,102447.63
2023-02-27T02:12:24.521Z,102448.34
2023-02-27T02:14:52.195Z,102443.53
2023-02-27T02:17:35.521Z,102444.81
2023-02-27T02:20:53.470Z,102447.41
2023-02-27T02:23:38.580Z,102438.97
2023-02-27T02:26:21.628Z,102436.97
2023-02-27T02:29:28.947Z,102444.06
2023-02-27T02:32:32.638Z,102438.63
2023-02-27T02:35:17.601Z,102429.41
2023-02-27T02:38:18.032Z,102436.13
2023-02-27T02:41:02.296Z,102439.53
2023-02-27T02:43:58.850Z,102435.19
2023-02-27T02:46:39.528Z,102433.41
2023-02-27T02:49:37.502Z,102443.72
2023-02-27T02:52:27.159Z,102435.03
2023-02-27T02:55:25.620Z,102436.81
2023-02-27T02:58:22.766Z,102428.81
2023-02-27T03:01:15.471Z,102445.00
2023-02-27T03:03:48.782Z,102447.28
2023-02-27T03:06:29.592Z,102442.91
2023-02-27T03:09:04.580Z,102443.63
2023-02-27T03:11:36.551Z,102438.72
2023-02-27T03:14:24.060Z,102450.38
2023-02-27T03:16:54.748Z,102453.59
2023-02-27T03:19:27.540Z,102443.16
2023-02-27T03:22:13.701Z,102462.69
2023-02-27T03:24:47.319Z,102457.38
2023-02-27T03:27:16.815Z,102458.09
2023-02-27T03:30:20.850Z,102463.94
2023-02-27T03:33:12.984Z,102473.81
2023-02-27T03:35:54.114Z,102473.41
2023-02-27T03:38:42.030Z,102482.66
2023-02-27T03:41:23.632Z,102481.59
2023-02-27T03:44:45.613Z,102474.66
2023-02-27T03:47:12.587Z,102485.06
2023-02-27T03:49:39.442Z,102480.03
2023-02-27T03:52:07.904Z,102487.75
2023-02-27T03:54:47.953Z,102491.06
2023-02-27T03:57:15.311Z,102485.06
2023-02-27T03:59:42.447Z,102478.22
2023-02-27T04:02:09.657Z,102490.16
2023-02-27T04:04:37.625Z,102478.28
2023-02-27T04:07:25.477Z,102491.16
2023-02-27T04:10:13.235Z,102485.31
2023-02-27T04:12:55.118Z,102497.91
2023-02-27T04:16:08.657Z,102498.50
2023-02-27T04:19:15.100Z,102497.66
2023-02-27T04:22:05.821Z,102493.69
2023-02-27T04:24:55.494Z,102499.91
2023-02-27T04:27:35.218Z,102504.31
2023-02-27T04:30:43.506Z,102505.97
2023-02-27T04:33:42.804Z,102502.66
2023-02-27T04:36:19.371Z,102496.25
2023-02-27T04:38:55.370Z,102499.59
2023-02-27T04:41:47.233Z,102499.72
2023-02-27T04:44:16.322Z,102503.78
2023-02-27T04:46:44.525Z,102501.53
2023-02-27T04:49:26.501Z,102495.72
2023-02-27T04:52:02.619Z,102504.16
2023-02-27T04:54:37.805Z,102503.22
2023-02-27T04:57:11.307Z,102513.00
2023-02-27T04:59:44.197Z,102515.22
2023-02-27T05:02:33.543Z,102511.38
2023-02-27T05:05:06.134Z,102511.53
2023-02-27T05:07:45.455Z,102519.84
2023-02-27T05:10:49.754Z,102521.81
2023-02-27T05:13:22.487Z,102527.94
2023-02-27T05:15:57.020Z,102523.47
2023-02-27T05:18:24.750Z,102524.66
2023-02-27T05:21:36.242Z,102530.84
2023-02-27T05:24:21.227Z,102524.25
2023-02-27T05:27:18.936Z,102528.84
2023-02-27T05:29:50.272Z,102533.91
2023-02-27T05:32:26.482Z,102541.59
2023-02-27T05:34:59.623Z,102538.13
2023-02-27T05:37:44.315Z,102539.81
2023-02-27T05:40:17.731Z,102537.19
2023-02-27T05:42:53.161Z,102544.59
2023-02-27T05:45:25.768Z,102539.06
2023-02-27T05:48:04.324Z,102548.44
2023-02-27T05:50:34.719Z,102546.66
2023-02-27T05:53:06.400Z,102549.91
2023-02-27T05:55:44.325Z,102554.59
2023-02-27T05:59:13.209Z,102549.56
2023-02-27T06:01:40.532Z,102546.34
2023-02-27T06:04:07.290Z,102548.09
2023-02-27T06:06:35.730Z,102559.06
2023-02-27T06:09:02.894Z,102558.88
2023-02-27T06:11:29.690Z,102564.03
2023-02-27T06:13:56.877Z,102564.16
2023-02-27T06:16:28.394Z,102568.25
2023-02-27T06:18:55.527Z,102572.44
2023-02-27T06:21:22.312Z,102580.22
2023-02-27T06:23:49.467Z,102582.88
2023-02-27T06:26:16.253Z,102581.97
2023-02-27T06:28:43.101Z,102587.13
2023-02-27T06:31:09.869Z,102590.63
2023-02-27T06:33:36.760Z,102599.53
2023-02-27T06:36:04.098Z,102591.50
2023-02-27T06:38:31.518Z,102601.88
2023-02-27T06:40:58.920Z,102600.09
2023-02-27T06:43:26.006Z,102602.84
2023-02-27T06:45:56.348Z,102606.00
2023-02-27T06:48:23.183Z,102596.19
2023-02-27T06:50:54.834Z,102603.38
2023-02-27T06:53:22.480Z,102603.97
2023-02-27T06:55:49.543Z,102604.22
2023-02-27T06:58:17.488Z,102604.63
2023-02-27T07:00:44.282Z,102602.88
2023-02-27T07:03:12.282Z,102600.31
2023-02-27T07:05:40.097Z,102594.91
2023-02-27T07:08:06.856Z,102608.44
2023-02-27T07:10:33.571Z,102609.88
2023-02-27T07:13:00.277Z,102613.75
2023-02-27T07:15:27.081Z,102614.53
2023-02-27T07:17:54.514Z,102612.28
2023-02-27T07:20:21.278Z,102620.19
2023-02-27T07:22:48.022Z,102619.84
2023-02-27T07:25:14.947Z,102630.47
2023-02-27T07:27:44.259Z,102626.28
2023-02-27T07:30:12.228Z,102630.03
2023-02-27T07:32:39.006Z,102631.94
2023-02-27T07:35:06.840Z,102636.25
2023-02-27T07:37:33.698Z,102643.09
2023-02-27T07:40:00.435Z,102640.16
2023-02-27T07:42:27.198Z,102641.84
2023-02-27T07:44:54.672Z,102649.97
2023-02-27T07:47:21.609Z,102642.94
2023-02-27T07:49:48.347Z,102638.63
2023-02-27T07:52:15.086Z,102650.38
2023-02-27T07:54:41.986Z,102645.94
2023-02-27T07:57:08.955Z,102651.69
2023-02-27T07:59:35.741Z,102649.53
2023-02-27T08:02:02.544Z,102656.75
2023-02-27T08:04:29.331Z,102655.56
2023-02-27T08:06:56.115Z,102657.00
2023-02-27T08:09:23.739Z,102656.94
2023-02-27T08:11:50.715Z,102656.75
2023-02-27T08:14:17.483Z,102650.59
2023-02-27T08:16:44.315Z,102641.09
2023-02-27T08:19:13.938Z,102640.69
2023-02-27T08:21:40.835Z,102649.00
2023-02-27T08:24:07.642Z,102646.06
2023-02-27T08:26:34.497Z,102647.81
2023-02-27T08:29:01.738Z,102637.13
2023-02-27T08:31:28.528Z,102632.63
2023-02-27T08:34:04.444Z,102644.88
2023-02-27T08:36:34.617Z,102637.44
2023-02-27T08:39:01.314Z,102647.97
2023-02-27T08:41:28.080Z,102657.88
2023-02-27T08:43:54.791Z,102651.09
2023-02-27T08:46:21.558Z,102658.56
2023-02-27T08:48:48.257Z,102649.50
2023-02-27T08:51:15.045Z,102648.75
2023-02-27T08:53:41.719Z,102647.94
2023-02-27T08:56:08.904Z,102645.09
2023-02-27T08:58:36.014Z,102647.06
2023-02-27T09:01:03.410Z,102639.09
2023-02-27T09:03:31.372Z,102644.34
2023-02-27T09:05:58.284Z,102644.88
2023-02-27T09:08:25.168Z,102649.78
2023-02-27T09:10:55.989Z,102641.63
2023-02-27T09:13:22.824Z,102645.03
2023-02-27T09:15:49.578Z,102649.88
2023-02-27T09:18:16.296Z,102660.06
2023-02-27T09:20:43.100Z,102652.78
2023-02-27T09:23:10.582Z,102661.69
2023-02-27T09:25:37.567Z,102647.56
2023-02-27T09:28:04.495Z,102658.13
2023-02-27T09:30:33.377Z,102653.28
2023-02-27T09:33:00.386Z,102652.50
2023-02-27T09:35:27.323Z,102651.13
2023-02-27T09:37:54.171Z,102647.00
2023-02-27T09:40:30.032Z,102649.03
2023-02-27T09:43:10.160Z,102643.63
2023-02-27T09:45:39.591Z,102648.28
2023-02-27T09:48:30.698Z,102641.03
2023-02-27T09:50:59.154Z,102648.19
2023-02-27T09:53:31.912Z,102643.88
2023-02-27T09:56:08.193Z,102649.25
2023-02-27T09:59:19.665Z,102651.09
2023-02-27T10:01:52.840Z,102646.97
2023-02-27T10:04:54.101Z,102638.53
2023-02-27T10:07:42.856Z,102640.63
2023-02-27T10:10:36.736Z,102642.16
2023-02-27T10:13:43.691Z,102645.09
2023-02-27T10:16:14.533Z,102641.72
2023-02-27T10:19:00.336Z,102649.81
2023-02-27T10:21:41.383Z,102646.31
2023-02-27T10:24:29.342Z,102640.81
2023-02-27T10:26:59.937Z,102637.41
2023-02-27T10:29:37.089Z,102655.50
2023-02-27T10:32:11.977Z,102645.69
2023-02-27T10:34:42.203Z,102642.88
2023-02-27T10:37:14.970Z,102648.69
2023-02-27T10:39:53.194Z,102649.44
2023-02-27T10:42:20.795Z,102652.00
2023-02-27T10:44:53.547Z,102644.44
2023-02-27T10:47:26.372Z,102642.25
2023-02-27T10:49:55.238Z,102642.56
2023-02-27T10:52:22.381Z,102638.72
2023-02-27T10:54:49.179Z,102636.25
2023-02-27T10:57:40.746Z,102642.06
2023-02-27T11:00:31.084Z,102640.81
2023-02-27T11:02:58.139Z,102647.47
2023-02-27T11:05:36.323Z,102646.97
2023-02-27T11:08:30.270Z,102644.44
2023-02-27T11:11:06.151Z,102644.81
2023-02-27T11:13:42.212Z,102648.81
2023-02-27T11:16:18.001Z,102651.44
2023-02-27T11:18:46.838Z,102643.69
2023-02-27T11:21:24.898Z,102643.22
2023-02-27T11:23:56.542Z,102641.44
2023-02-27T11:26:36.865Z,102632.97
2023-02-27T11:29:15.556Z,102626.94
2023-02-27T11:32:12.637Z,102625.22
2023-02-27T11:34:47.718Z,102622.41
2023-02-27T11:37:35.793Z,102621.44
2023-02-27T11:40:14.924Z,102620.47
2023-02-27T11:42:50.068Z,102603.22
2023-02-27T11:46:04.844Z,102609.50
2023-02-27T11:48:40.629Z,102611.78
2023-02-27T11:51:26.234Z,102598.91
2023-02-27T11:54:21.120Z,102585.56
2023-02-27T11:56:54.971Z,102581.91
2023-02-27T11:59:40.482Z,102574.56
2023-02-27T12:02:55.227Z,102567.84
2023-02-27T12:05:51.093Z,102573.75
2023-02-27T12:08:57.722Z,102575.06
2023-02-27T12:11:38.972Z,102569.22
2023-02-27T12:14:08.721Z,102569.00
2023-02-27T12:16:45.520Z,102567.34
2023-02-27T12:19:22.924Z,102565.22
2023-02-27T12:22:00.290Z,102569.03
2023-02-27T12:24:42.207Z,102555.69
2023-02-27T12:27:31.952Z,102548.09
2023-02-27T12:30:18.649Z,102552.22
2023-02-27T12:32:55.019Z,102548.00
2023-02-27T12:35:29.179Z,102549.50
2023-02-27T12:37:57.307Z,102554.78
2023-02-27T12:40:37.613Z,102538.81
2023-02-27T12:43:16.107Z,102546.59
2023-02-27T12:45:55.466Z,102534.75
2023-02-27T12:48:51.611Z,102545.19
2023-02-27T12:51:43.456Z,102540.19
2023-02-27T12:54:36.237Z,102529.34
2023-02-27T12:57:57.913Z,102529.38
2023-02-27T13:00:40.592Z,102522.06
2023-02-27T13:03:25.263Z,102526.53
2023-02-27T13:06:07.768Z,102525.56
2023-02-27T13:09:16.972Z,102522.16
2023-02-27T13:12:27.930Z,102514.59
2023-02-27T13:15:24.050Z,102506.06
2023-02-27T13:18:00.011Z,102513.28
2023-02-27T13:20:39.427Z,102506.34
2023-02-27T13:23:48.549Z,102504.84
2023-02-27T13:26:35.590Z,102506.47
2023-02-27T13:29:04.517Z,102494.63
2023-02-27T13:32:01.664Z,102492.03
2023-02-27T13:34:42.574Z,102502.34
2023-02-27T13:37:09.797Z,102506.50
2023-02-27T13:39:50.139Z,102508.38
2023-02-27T13:42:26.229Z,102500.09
2023-02-27T13:45:06.351Z,102505.06
2023-02-27T13:47:47.409Z,102496.63
2023-02-27T13:50:46.476Z,102505.59
2023-02-27T13:53:18.683Z,102502.25
2023-02-27T13:55:45.963Z,102499.69
2023-02-27T13:58:18.737Z,102503.56
2023-02-27T14:00:56.856Z,102500.59
2023-02-27T14:03:27.997Z,102505.16
2023-02-27T14:06:01.222Z,102495.47
2023-02-27T14:08:34.127Z,102499.34
2023-02-27T14:11:16.777Z,102492.22
2023-02-27T14:13:46.656Z,102499.84
2023-02-27T14:16:39.108Z,102505.66
2023-02-27T14:19:24.136Z,102515.84
2023-02-27T14:22:03.042Z,102504.69
2023-02-27T14:25:01.064Z,102499.88
2023-02-27T14:27:44.404Z,102495.69
2023-02-27T14:30:45.803Z,102491.00
2023-02-27T14:33:39.561Z,102498.78
2023-02-27T14:36:15.830Z,102484.81
2023-02-27T14:38:43.128Z,102494.88
2023-02-27T14:41:31.183Z,102507.69
2023-02-27T14:43:59.676Z,102511.69
2023-02-27T14:46:36.172Z,102517.16
2023-02-27T14:49:16.728Z,102515.00
2023-02-27T14:51:44.313Z,102508.28
2023-02-27T14:54:20.713Z,102516.97
2023-02-27T14:56:57.488Z,102519.81
2023-02-27T14:59:46.505Z,102510.72
2023-02-27T15:02:23.610Z,102499.53
2023-02-27T15:05:15.848Z,102503.78
2023-02-27T15:07:47.516Z,102514.19
2023-02-27T15:10:31.543Z,102513.09
2023-02-27T15:13:00.406Z,102511.28
2023-02-27T15:15:27.863Z,102513.59
2023-02-27T15:17:55.943Z,102526.59
2023-02-27T15:20:30.265Z,102523.16
2023-02-27T15:23:02.058Z,102523.16
2023-02-27T15:25:37.806Z,102526.78
2023-02-27T15:28:22.208Z,102522.50
2023-02-27T15:30:51.100Z,102518.34
2023-02-27T15:33:18.838Z,102522.63
2023-02-27T15:35:46.466Z,102530.34
2023-02-27T15:38:36.048Z,102530.19
2023-02-27T15:41:04.620Z,102527.69
2023-02-27T15:43:31.871Z,102529.19
2023-02-27T15:45:59.225Z,102526.28
2023-02-27T15:48:26.816Z,102537.53
2023-02-27T15:50:58.042Z,102543.47
2023-02-27T15:53:29.015Z,102540.84
2023-02-27T15:55:59.944Z,102533.13
2023-02-27T15:58:34.302Z,102539.91
2023-02-27T16:01:18.840Z,102533.16
2023-02-27T16:03:49.714Z,102534.13
2023-02-27T16:06:23.419Z,102543.47
2023-02-27T16:09:34.775Z,102541.78
2023-02-27T16:12:24.475Z,102545.88
2023-02-27T16:15:13.320Z,102539.69
2023-02-27T16:17:58.392Z,102550.78
2023-02-27T16:20:33.457Z,102547.19
2023-02-27T16:23:31.851Z,102553.25
2023-02-27T16:26:32.545Z,102558.34
2023-02-27T16:29:05.257Z,102558.41
2023-02-27T16:31:35.308Z,102558.19
2023-02-27T16:34:46.713Z,102565.16
2023-02-27T16:37:37.999Z,102566.81
2023-02-27T16:40:25.513Z,102568.53
2023-02-27T16:42:53.081Z,102561.59
2023-02-27T16:45:29.126Z,102563.28
2023-02-27T16:47:59.415Z,102562.41
2023-02-27T16:50:32.684Z,102559.00
2023-02-27T16:52:59.906Z,102560.72
2023-02-27T16:55:27.392Z,102562.50
2023-02-27T16:57:54.239Z,102570.00
2023-02-27T17:00:22.983Z,102571.72
2023-02-27T17:02:50.176Z,102559.66
2023-02-27T17:05:18.273Z,102564.88
2023-02-27T17:07:45.412Z,102568.22
2023-02-27T17:10:22.080Z,102570.72
2023-02-27T17:12:48.974Z,102581.56
2023-02-27T17:15:16.202Z,102588.47
2023-02-27T17:17:43.546Z,102588.31
2023-02-27T17:20:13.159Z,102581.50
2023-02-27T17:22:43.192Z,102592.50
2023-02-27T17:25:11.761Z,102590.00
2023-02-27T17:27:38.657Z,102592.56
2023-02-27T17:30:07.070Z,102605.38
2023-02-27T17:32:35.082Z,102603.41
2023-02-27T17:35:02.134Z,102605.81
2023-02-27T17:37:29.000Z,102615.81
2023-02-27T17:39:56.115Z,102611.41
2023-02-27T17:42:25.661Z,102616.47
2023-02-27T17:44:52.937Z,102621.59
2023-02-27T17:47:22.131Z,102621.44
2023-02-27T17:49:48.998Z,102627.28
2023-02-27T17:52:15.903Z,102623.56
2023-02-27T17:54:42.625Z,102629.53
2023-02-27T17:57:11.374Z,102630.47
2023-02-27T17:59:38.189Z,102626.88
2023-02-27T18:02:05.000Z,102631.03
2023-02-27T18:04:32.086Z,102634.66
2023-02-27T18:06:59.037Z,102642.31
2023-02-27T18:09:25.953Z,102640.53
2023-02-27T18:11:53.511Z,102647.69
2023-02-27T18:14:20.869Z,102652.72
2023-02-27T18:16:47.742Z,102650.03
2023-02-27T18:19:14.550Z,102656.28
2023-02-27T18:21:42.758Z,102654.09
2023-02-27T18:24:09.691Z,102655.91
2023-02-27T18:26:37.067Z,102651.69
2023-02-27T18:29:08.198Z,102657.47
2023-02-27T18:31:40.995Z,102654.13
2023-02-27T18:34:07.818Z,102651.41
2023-02-27T18:36:36.320Z,102655.84
2023-02-27T18:39:05.061Z,102644.91
2023-02-27T18:41:32.187Z,102649.25
2023-02-27T18:43:59.176Z,102646.75
2023-02-27T18:46:27.098Z,102653.72
2023-02-27T18:48:54.188Z,102650.56
2023-02-27T18:51:21.087Z,102648.69
2023-02-27T18:53:49.614Z,102650.47
2023-02-27T18:56:22.633Z,102641.66
2023-02-27T18:58:50.400Z,102638.47
2023-02-27T19:01:27.678Z,102643.84
2023-02-27T19:04:00.328Z,102640.44
2023-02-27T19:06:28.420Z,102639.41
2023-02-27T19:08:55.513Z,102640.13
2023-02-27T19:11:34.633Z,102643.34
2023-02-27T19:14:07.341Z,102644.19
2023-02-27T19:16:35.348Z,102645.03
2023-02-27T19:19:07.572Z,102633.81
2023-02-27T19:21:35.129Z,102639.78
2023-02-27T19:24:02.510Z,102640.00
2023-02-27T19:26:32.371Z,102631.34
2023-02-27T19:28:59.166Z,102630.34
2023-02-27T19:31:26.536Z,102639.69
2023-02-27T19:33:53.422Z,102644.66
2023-02-27T19:36:21.930Z,102643.88
2023-02-27T19:38:50.680Z,102637.78
2023-02-27T19:41:18.325Z,102639.41
2023-02-27T19:43:47.077Z,102639.41
2023-02-27T19:46:18.483Z,102640.88
2023-02-27T19:48:46.065Z,102639.44
2023-02-27T19:51:15.489Z,102638.38
2023-02-27T19:53:45.401Z,102636.50
2023-02-27T19:56:17.574Z,102637.28
2023-02-27T19:58:45.087Z,102649.16
2023-02-27T20:01:12.439Z,102642.56
2023-02-27T20:03:43.825Z,102639.44
2023-02-27T20:06:24.845Z,102638.56
2023-02-27T20:08:52.933Z,102641.09
2023-02-27T20:11:21.613Z,102642.75
2023-02-27T20:13:50.420Z,102647.88
2023-02-27T20:16:22.298Z,102638.69
2023-02-27T20:18:50.037Z,102647.91
2023-02-27T20:21:23.237Z,102641.16
2023-02-27T20:23:51.684Z,102636.03
2023-02-27T20:26:22.466Z,102641.00
2023-02-27T20:28:52.160Z,102636.03
2023-02-27T20:31:23.115Z,102634.19
2023-02-27T20:33:50.562Z,102638.31
2023-02-27T20:36:18.265Z,102640.56
2023-02-27T20:38:45.546Z,102654.13
2023-02-27T20:41:16.387Z,102640.47
2023-02-27T20:43:44.602Z,102638.56
2023-02-27T20:46:16.021Z,102647.03
2023-02-27T20:48:43.715Z,102642.84
2023-02-27T20:51:18.306Z,102637.47
2023-02-27T20:53:48.016Z,102644.09
2023-02-27T20:56:18.181Z,102640.16
2023-02-27T20:58:45.015Z,102648.63
2023-02-27T21:01:13.907Z,102646.75
2023-02-27T21:03:43.039Z,102638.84
2023-02-27T21:06:13.433Z,102644.09
2023-02-27T21:08:44.907Z,102644.97
2023-02-27T21:11:19.523Z,102644.69
2023-02-27T21:13:47.185Z,102648.84
2023-02-27T21:16:17.044Z,102646.38
2023-02-27T21:18:45.449Z,102659.00
2023-02-27T21:21:17.062Z,102657.16
2023-02-27T21:23:43.908Z,102645.34
2023-02-27T21:26:17.257Z,102656.25
2023-02-27T21:28:47.898Z,102649.16
2023-02-27T21:31:17.461Z,102653.47
2023-02-27T21:33:44.890Z,102654.25
2023-02-27T21:36:12.222Z,102659.19
2023-02-27T21:38:39.906Z,102662.44
2023-02-27T21:41:12.633Z,102658.94
2023-02-27T21:43:40.494Z,102659.00
2023-02-27T21:46:10.660Z,102667.41
2023-02-27T21:48:38.554Z,102665.53
2023-02-27T21:51:06.820Z,102655.56
2023-02-27T21:53:36.524Z,102665.59
2023-02-27T21:56:09.562Z,102661.38
2023-02-27T21:58:37.684Z,102656.25
2023-02-27T22:01:15.935Z,102655.31
2023-02-27T22:03:44.880Z,102663.63
2023-02-27T22:06:13.588Z,102659.38
2023-02-27T22:08:41.603Z,102668.34
2023-02-27T22:11:09.272Z,102664.75
2023-02-27T22:13:37.084Z,102664.56
2023-02-27T22:16:10.616Z,102660.09
2023-02-27T22:18:39.202Z,102659.22
2023-02-27T22:21:18.724Z,102652.34
2023-02-27T22:23:47.030Z,102655.06
2023-02-27T22:26:21.393Z,102657.47
2023-02-27T22:28:48.372Z,102659.16
2023-02-27T22:31:24.716Z,102660.09
2023-02-27T22:33:54.890Z,102663.41
2023-02-27T22:36:24.855Z,102659.97
2023-02-27T22:38:55.138Z,102653.00
2023-02-27T22:41:26.407Z,102662.34
2023-02-27T22:43:53.811Z,102672.38
2023-02-27T22:46:36.961Z,102669.78
2023-02-27T22:49:11.724Z,102668.03
2023-02-27T22:51:38.545Z,102669.50
2023-02-27T22:54:07.311Z,102675.88
2023-02-27T22:56:39.134Z,102668.03
2023-02-27T22:59:06.382Z,102674.69
2023-02-27T23:01:35.528Z,102677.91
2023-02-27T23:04:08.237Z,102679.69
2023-02-27T23:06:39.085Z,102676.53
2023-02-27T23:09:13.128Z,102670.69
2023-02-27T23:11:40.470Z,102686.81
2023-02-27T23:14:07.190Z,102686.09
2023-02-27T23:16:34.106Z,102682.44
2023-02-27T23:19:01.604Z,102689.88
2023-02-27T23:21:37.094Z,102692.34
2023-02-27T23:24:10.289Z,102698.28
2023-02-27T23:26:47.483Z,102699.16
2023-02-27T23:29:14.928Z,102708.41
2023-02-27T23:31:42.433Z,102699.06
2023-02-27T23:34:10.137Z,102707.41
2023-02-27T23:36:39.095Z,102705.78
2023-02-27T23:39:07.846Z,102712.31
2023-02-27T23:41:35.082Z,102711.44
2023-02-27T23:44:02.233Z,102706.31
2023-02-27T23:46:30.579Z,102722.41
2023-02-27T23:49:01.933Z,102713.72
2023-02-27T23:51:30.755Z,102718.25
2023-02-27T23:53:58.285Z,102720.47
2023-02-27T23:56:28.603Z,102712.63
2023-02-27T23:59:06.601Z,102716.97
